sensor_id;sensor_type;location;lat;lon;timestamp;temperature;humidity
19385;DHT22;9828;54.122;17.974;2022-11-12T00:04:41;10.80;1.00
19385;DHT22;9828;54.122;17.974;2022-11-12T00:10:21;10.70;1.00
19385;DHT22;9828;54.122;17.974;2022-11-12T00:16:02;10.80;1.00
19385;DHT22;9828;54.122;17.974;2022-11-12T00:21:44;10.70;1.00
19385;DHT22;9828;54.122;17.974;2022-11-12T00:27:24;10.60;1.00
19385;DHT22;9828;54.122;17.974;2022-11-12T00:33:04;10.70;1.00
19385;DHT22;9828;54.122;17.974;2022-11-12T00:38:45;10.70;1.00
19385;DHT22;9828;54.122;17.974;2022-11-12T00:44:25;10.70;1.00
19385;DHT22;9828;54.122;17.974;2022-11-12T00:50:06;10.70;1.00
19385;DHT22;9828;54.122;17.974;2022-11-12T00:55:47;10.60;1.00
19385;DHT22;9828;54.122;17.974;2022-11-12T01:01:27;10.60;1.00
19385;DHT22;9828;54.122;17.974;2022-11-12T01:07:07;10.70;1.00
19385;DHT22;9828;54.122;17.974;2022-11-12T01:12:47;10.60;1.00
19385;DHT22;9828;54.122;17.974;2022-11-12T01:18:27;10.60;1.00
19385;DHT22;9828;54.122;17.974;2022-11-12T01:24:08;10.60;4.60
19385;DHT22;9828;54.122;17.974;2022-11-12T01:29:48;10.60;14.10
19385;DHT22;9828;54.122;17.974;2022-11-12T01:35:29;10.70;1.00
19385;DHT22;9828;54.122;17.974;2022-11-12T01:41:17;10.60;6.80
19385;DHT22;9828;54.122;17.974;2022-11-12T01:47:04;10.60;20.30
19385;DHT22;9828;54.122;17.974;2022-11-12T01:52:50;10.70;3.20
19385;DHT22;9828;54.122;17.974;2022-11-12T01:58:33;10.80;1.00
19385;DHT22;9828;54.122;17.974;2022-11-12T02:04:14;10.80;1.00
19385;DHT22;9828;54.122;17.974;2022-11-12T02:09:55;10.70;2.40
19385;DHT22;9828;54.122;17.974;2022-11-12T02:15:37;10.70;12.70
19385;DHT22;9828;54.122;17.974;2022-11-12T02:21:19;10.80;1.00
19385;DHT22;9828;54.122;17.974;2022-11-12T02:26:59;10.80;1.00
19385;DHT22;9828;54.122;17.974;2022-11-12T02:32:39;10.80;1.00
19385;DHT22;9828;54.122;17.974;2022-11-12T02:38:19;10.80;1.00
19385;DHT22;9828;54.122;17.974;2022-11-12T02:44:00;10.80;1.00
19385;DHT22;9828;54.122;17.974;2022-11-12T02:49:39;10.80;1.00
19385;DHT22;9828;54.122;17.974;2022-11-12T02:55:19;10.80;1.00
19385;DHT22;9828;54.122;17.974;2022-11-12T03:00:59;10.90;1.00
19385;DHT22;9828;54.122;17.974;2022-11-12T03:06:39;10.90;1.00
19385;DHT22;9828;54.122;17.974;2022-11-12T03:12:19;10.90;1.00
19385;DHT22;9828;54.122;17.974;2022-11-12T03:17:59;11.00;1.00
19385;DHT22;9828;54.122;17.974;2022-11-12T03:23:39;10.90;1.00
19385;DHT22;9828;54.122;17.974;2022-11-12T03:29:19;10.90;1.00
19385;DHT22;9828;54.122;17.974;2022-11-12T03:35:00;10.90;1.00
19385;DHT22;9828;54.122;17.974;2022-11-12T03:40:39;10.90;1.00
19385;DHT22;9828;54.122;17.974;2022-11-12T03:46:20;10.90;1.00
19385;DHT22;9828;54.122;17.974;2022-11-12T03:51:59;10.90;1.00
19385;DHT22;9828;54.122;17.974;2022-11-12T03:57:40;11.00;1.00
19385;DHT22;9828;54.122;17.974;2022-11-12T04:03:20;11.00;1.00
19385;DHT22;9828;54.122;17.974;2022-11-12T04:08:59;10.90;1.00
19385;DHT22;9828;54.122;17.974;2022-11-12T04:14:39;10.90;1.00
19385;DHT22;9828;54.122;17.974;2022-11-12T04:20:19;10.80;1.00
19385;DHT22;9828;54.122;17.974;2022-11-12T04:26:18;10.90;1.00
19385;DHT22;9828;54.122;17.974;2022-11-12T04:32:04;10.90;1.00
19385;DHT22;9828;54.122;17.974;2022-11-12T04:37:44;10.90;1.00
19385;DHT22;9828;54.122;17.974;2022-11-12T04:43:24;10.90;1.00
19385;DHT22;9828;54.122;17.974;2022-11-12T04:49:22;10.80;1.00
19385;DHT22;9828;54.122;17.974;2022-11-12T04:55:03;10.90;1.00
19385;DHT22;9828;54.122;17.974;2022-11-12T05:00:44;10.90;1.00
19385;DHT22;9828;54.122;17.974;2022-11-12T05:06:24;10.90;1.00
19385;DHT22;9828;54.122;17.974;2022-11-12T05:12:22;10.90;1.00
19385;DHT22;9828;54.122;17.974;2022-11-12T05:18:02;10.90;1.00
19385;DHT22;9828;54.122;17.974;2022-11-12T05:23:42;10.90;1.00
19385;DHT22;9828;54.122;17.974;2022-11-12T05:29:21;10.90;1.00
19385;DHT22;9828;54.122;17.974;2022-11-12T05:35:09;10.90;1.00
19385;DHT22;9828;54.122;17.974;2022-11-12T05:40:49;10.90;1.00
19385;DHT22;9828;54.122;17.974;2022-11-12T05:46:29;10.90;1.00
19385;DHT22;9828;54.122;17.974;2022-11-12T05:52:09;11.00;1.00
19385;DHT22;9828;54.122;17.974;2022-11-12T05:57:49;11.00;1.00
19385;DHT22;9828;54.122;17.974;2022-11-12T06:03:28;10.90;1.00
19385;DHT22;9828;54.122;17.974;2022-11-12T06:09:09;11.00;1.00
19385;DHT22;9828;54.122;17.974;2022-11-12T06:14:49;10.90;1.00
19385;DHT22;9828;54.122;17.974;2022-11-12T06:20:29;11.00;1.00
19385;DHT22;9828;54.122;17.974;2022-11-12T06:26:09;10.90;1.00
19385;DHT22;9828;54.122;17.974;2022-11-12T06:31:49;10.90;1.00
19385;DHT22;9828;54.122;17.974;2022-11-12T06:37:30;10.90;1.00
19385;DHT22;9828;54.122;17.974;2022-11-12T06:43:10;10.90;11.30
19385;DHT22;9828;54.122;17.974;2022-11-12T06:48:51;10.90;17.50
19385;DHT22;9828;54.122;17.974;2022-11-12T06:54:31;10.90;20.90
19385;DHT22;9828;54.122;17.974;2022-11-12T07:00:11;10.90;22.10
19385;DHT22;9828;54.122;17.974;2022-11-12T07:05:51;11.00;11.00
19385;DHT22;9828;54.122;17.974;2022-11-12T07:11:31;11.00;1.00
19385;DHT22;9828;54.122;17.974;2022-11-12T07:17:11;11.00;1.00
19385;DHT22;9828;54.122;17.974;2022-11-12T07:22:51;11.10;1.00
19385;DHT22;9828;54.122;17.974;2022-11-12T07:28:32;11.10;1.00
19385;DHT22;9828;54.122;17.974;2022-11-12T07:34:12;11.20;1.00
19385;DHT22;9828;54.122;17.974;2022-11-12T07:39:52;11.20;1.00
19385;DHT22;9828;54.122;17.974;2022-11-12T07:45:32;11.10;1.00
19385;DHT22;9828;54.122;17.974;2022-11-12T07:51:14;11.20;1.00
19385;DHT22;9828;54.122;17.974;2022-11-12T07:56:54;11.20;1.00
19385;DHT22;9828;54.122;17.974;2022-11-12T08:02:34;11.20;1.00
19385;DHT22;9828;54.122;17.974;2022-11-12T08:08:15;11.30;1.00
19385;DHT22;9828;54.122;17.974;2022-11-12T08:13:55;11.30;1.00
19385;DHT22;9828;54.122;17.974;2022-11-12T08:19:35;11.30;1.00
19385;DHT22;9828;54.122;17.974;2022-11-12T08:25:15;11.40;1.00
19385;DHT22;9828;54.122;17.974;2022-11-12T08:30:55;11.30;1.00
19385;DHT22;9828;54.122;17.974;2022-11-12T08:36:35;11.40;1.00
19385;DHT22;9828;54.122;17.974;2022-11-12T08:42:15;11.40;1.00
19385;DHT22;9828;54.122;17.974;2022-11-12T08:48:09;11.40;1.00
19385;DHT22;9828;54.122;17.974;2022-11-12T08:53:50;11.40;1.00
19385;DHT22;9828;54.122;17.974;2022-11-12T08:59:30;11.50;1.00
19385;DHT22;9828;54.122;17.974;2022-11-12T09:05:10;11.60;1.00
19385;DHT22;9828;54.122;17.974;2022-11-12T09:10:51;11.60;1.00
19385;DHT22;9828;54.122;17.974;2022-11-12T09:16:30;11.60;1.00
19385;DHT22;9828;54.122;17.974;2022-11-12T09:22:11;11.60;1.00
19385;DHT22;9828;54.122;17.974;2022-11-12T09:27:51;11.60;1.00
19385;DHT22;9828;54.122;17.974;2022-11-12T09:33:32;11.70;1.00
19385;DHT22;9828;54.122;17.974;2022-11-12T09:39:13;11.80;1.00
19385;DHT22;9828;54.122;17.974;2022-11-12T09:45:04;11.80;1.00
19385;DHT22;9828;54.122;17.974;2022-11-12T09:51:02;11.70;1.00
19385;DHT22;9828;54.122;17.974;2022-11-12T09:56:42;11.80;1.00
19385;DHT22;9828;54.122;17.974;2022-11-12T10:20:42;11.90;1.00
19385;DHT22;9828;54.122;17.974;2022-11-12T10:26:24;11.90;1.00
19385;DHT22;9828;54.122;17.974;2022-11-12T10:32:07;11.90;1.00
19385;DHT22;9828;54.122;17.974;2022-11-12T10:38:10;11.90;1.00
19385;DHT22;9828;54.122;17.974;2022-11-12T10:43:56;11.90;1.00
19385;DHT22;9828;54.122;17.974;2022-11-12T10:49:36;12.00;1.00
19385;DHT22;9828;54.122;17.974;2022-11-12T10:55:17;12.00;1.00
19385;DHT22;9828;54.122;17.974;2022-11-12T11:01:03;12.00;1.00
19385;DHT22;9828;54.122;17.974;2022-11-12T11:06:43;12.10;1.00
19385;DHT22;9828;54.122;17.974;2022-11-12T11:12:29;12.10;1.00
19385;DHT22;9828;54.122;17.974;2022-11-12T11:18:13;12.10;1.00
19385;DHT22;9828;54.122;17.974;2022-11-12T11:47:54;12.10;1.00
19385;DHT22;9828;54.122;17.974;2022-11-12T11:54:01;12.20;1.00
19385;DHT22;9828;54.122;17.974;2022-11-12T12:17:31;12.10;47.90
19385;DHT22;9828;54.122;17.974;2022-11-12T12:23:36;12.10;56.40
19385;DHT22;9828;54.122;17.974;2022-11-12T12:29:38;12.20;49.50
19385;DHT22;9828;54.122;17.974;2022-11-12T12:35:26;12.30;46.60
19385;DHT22;9828;54.122;17.974;2022-11-12T12:41:25;12.20;66.80
19385;DHT22;9828;54.122;17.974;2022-11-12T12:47:09;12.30;86.30
19385;DHT22;9828;54.122;17.974;2022-11-12T12:53:16;12.20;86.60
19385;DHT22;9828;54.122;17.974;2022-11-12T12:58:57;12.20;99.90
19385;DHT22;9828;54.122;17.974;2022-11-12T13:04:53;12.20;99.90
19385;DHT22;9828;54.122;17.974;2022-11-12T13:28:19;12.10;99.90
19385;DHT22;9828;54.122;17.974;2022-11-12T13:34:18;12.10;99.90
19385;DHT22;9828;54.122;17.974;2022-11-12T13:40:02;12.10;99.90
19385;DHT22;9828;54.122;17.974;2022-11-12T13:45:58;12.10;99.90
19385;DHT22;9828;54.122;17.974;2022-11-12T13:51:45;12.00;99.90
19385;DHT22;9828;54.122;17.974;2022-11-12T13:57:29;12.00;99.90
19385;DHT22;9828;54.122;17.974;2022-11-12T14:03:15;12.00;99.90
19385;DHT22;9828;54.122;17.974;2022-11-12T14:09:08;12.00;99.90
19385;DHT22;9828;54.122;17.974;2022-11-12T14:20:55;11.90;99.90
19385;DHT22;9828;54.122;17.974;2022-11-12T14:26:40;11.90;99.90
19385;DHT22;9828;54.122;17.974;2022-11-12T14:32:20;11.80;99.90
19385;DHT22;9828;54.122;17.974;2022-11-12T14:38:20;11.80;99.90
19385;DHT22;9828;54.122;17.974;2022-11-12T14:44:03;11.70;99.90
19385;DHT22;9828;54.122;17.974;2022-11-12T14:49:51;11.70;99.90
19385;DHT22;9828;54.122;17.974;2022-11-12T14:55:33;11.70;99.90
19385;DHT22;9828;54.122;17.974;2022-11-12T15:01:36;11.70;99.90
19385;DHT22;9828;54.122;17.974;2022-11-12T15:08:03;11.70;99.90
19385;DHT22;9828;54.122;17.974;2022-11-12T15:13:43;11.70;99.90
19385;DHT22;9828;54.122;17.974;2022-11-12T15:19:25;11.70;99.90
19385;DHT22;9828;54.122;17.974;2022-11-12T15:25:25;11.70;99.90
19385;DHT22;9828;54.122;17.974;2022-11-12T15:31:14;11.70;99.90
19385;DHT22;9828;54.122;17.974;2022-11-12T15:36:57;11.70;99.90
19385;DHT22;9828;54.122;17.974;2022-11-12T15:42:38;11.70;99.90
19385;DHT22;9828;54.122;17.974;2022-11-12T15:48:20;11.60;99.90
19385;DHT22;9828;54.122;17.974;2022-11-12T15:54:00;11.70;99.90
19385;DHT22;9828;54.122;17.974;2022-11-12T15:59:41;11.70;99.90
19385;DHT22;9828;54.122;17.974;2022-11-12T16:05:21;11.70;99.90
19385;DHT22;9828;54.122;17.974;2022-11-12T16:11:01;11.60;99.90
19385;DHT22;9828;54.122;17.974;2022-11-12T16:16:42;11.60;99.90
19385;DHT22;9828;54.122;17.974;2022-11-12T16:22:21;11.60;99.90
19385;DHT22;9828;54.122;17.974;2022-11-12T16:28:02;11.60;99.90
19385;DHT22;9828;54.122;17.974;2022-11-12T16:33:44;11.60;99.90
19385;DHT22;9828;54.122;17.974;2022-11-12T16:39:23;11.60;99.90
19385;DHT22;9828;54.122;17.974;2022-11-12T16:45:04;11.60;99.90
19385;DHT22;9828;54.122;17.974;2022-11-12T16:50:44;11.60;99.90
19385;DHT22;9828;54.122;17.974;2022-11-12T16:56:24;11.60;99.90
19385;DHT22;9828;54.122;17.974;2022-11-12T17:02:12;11.60;99.90
19385;DHT22;9828;54.122;17.974;2022-11-12T17:07:55;11.60;99.90
19385;DHT22;9828;54.122;17.974;2022-11-12T17:13:36;11.60;99.90
19385;DHT22;9828;54.122;17.974;2022-11-12T17:19:17;11.60;99.90
19385;DHT22;9828;54.122;17.974;2022-11-12T17:24:57;11.60;99.90
19385;DHT22;9828;54.122;17.974;2022-11-12T17:30:37;11.60;99.90
19385;DHT22;9828;54.122;17.974;2022-11-12T17:36:23;11.60;99.90
19385;DHT22;9828;54.122;17.974;2022-11-12T17:42:02;11.60;99.90
19385;DHT22;9828;54.122;17.974;2022-11-12T17:47:42;11.60;99.90
19385;DHT22;9828;54.122;17.974;2022-11-12T17:53:22;11.60;99.90
19385;DHT22;9828;54.122;17.974;2022-11-12T17:59:02;11.60;99.90
19385;DHT22;9828;54.122;17.974;2022-11-12T18:04:43;11.60;99.90
19385;DHT22;9828;54.122;17.974;2022-11-12T18:10:23;11.60;99.90
19385;DHT22;9828;54.122;17.974;2022-11-12T18:16:26;11.60;99.90
19385;DHT22;9828;54.122;17.974;2022-11-12T18:22:06;11.60;99.90
19385;DHT22;9828;54.122;17.974;2022-11-12T18:27:45;11.60;99.90
19385;DHT22;9828;54.122;17.974;2022-11-12T18:33:28;11.60;99.90
19385;DHT22;9828;54.122;17.974;2022-11-12T18:39:08;11.60;99.90
19385;DHT22;9828;54.122;17.974;2022-11-12T18:44:49;11.60;99.90
19385;DHT22;9828;54.122;17.974;2022-11-12T18:50:29;11.60;99.90
19385;DHT22;9828;54.122;17.974;2022-11-12T18:56:14;11.60;99.90
19385;DHT22;9828;54.122;17.974;2022-11-12T19:01:56;11.60;99.90
19385;DHT22;9828;54.122;17.974;2022-11-12T19:07:36;11.60;99.90
19385;DHT22;9828;54.122;17.974;2022-11-12T19:13:17;11.60;99.90
19385;DHT22;9828;54.122;17.974;2022-11-12T19:18:57;11.60;99.90
19385;DHT22;9828;54.122;17.974;2022-11-12T19:24:37;11.60;99.90
19385;DHT22;9828;54.122;17.974;2022-11-12T19:30:18;11.60;99.90
19385;DHT22;9828;54.122;17.974;2022-11-12T19:36:05;11.60;99.90
19385;DHT22;9828;54.122;17.974;2022-11-12T19:41:46;11.60;99.90
19385;DHT22;9828;54.122;17.974;2022-11-12T19:47:27;11.60;99.90
19385;DHT22;9828;54.122;17.974;2022-11-12T19:53:07;11.60;99.90
19385;DHT22;9828;54.122;17.974;2022-11-12T19:58:47;11.70;99.90
19385;DHT22;9828;54.122;17.974;2022-11-12T20:04:28;11.70;99.90
19385;DHT22;9828;54.122;17.974;2022-11-12T20:10:08;11.70;99.90
19385;DHT22;9828;54.122;17.974;2022-11-12T20:15:48;11.60;99.90
19385;DHT22;9828;54.122;17.974;2022-11-12T20:21:29;11.60;99.90
19385;DHT22;9828;54.122;17.974;2022-11-12T20:27:09;11.60;99.90
19385;DHT22;9828;54.122;17.974;2022-11-12T20:32:50;11.60;99.90
19385;DHT22;9828;54.122;17.974;2022-11-12T20:38:30;11.60;99.90
19385;DHT22;9828;54.122;17.974;2022-11-12T20:44:10;11.60;99.90
19385;DHT22;9828;54.122;17.974;2022-11-12T20:49:52;11.60;99.90
19385;DHT22;9828;54.122;17.974;2022-11-12T20:55:32;11.60;99.90
19385;DHT22;9828;54.122;17.974;2022-11-12T21:01:14;11.60;99.90
19385;DHT22;9828;54.122;17.974;2022-11-12T21:06:55;11.60;99.90
19385;DHT22;9828;54.122;17.974;2022-11-12T21:12:38;11.60;99.90
19385;DHT22;9828;54.122;17.974;2022-11-12T21:18:18;11.60;99.90
19385;DHT22;9828;54.122;17.974;2022-11-12T21:23:58;11.60;99.90
19385;DHT22;9828;54.122;17.974;2022-11-12T21:29:41;11.60;99.90
19385;DHT22;9828;54.122;17.974;2022-11-12T21:35:21;11.60;99.90
19385;DHT22;9828;54.122;17.974;2022-11-12T21:41:06;11.60;99.90
19385;DHT22;9828;54.122;17.974;2022-11-12T21:46:46;11.60;99.90
19385;DHT22;9828;54.122;17.974;2022-11-12T21:52:26;11.60;99.90
19385;DHT22;9828;54.122;17.974;2022-11-12T21:58:06;11.50;99.90
19385;DHT22;9828;54.122;17.974;2022-11-12T22:03:51;11.60;99.90
19385;DHT22;9828;54.122;17.974;2022-11-12T22:09:31;11.50;99.90
19385;DHT22;9828;54.122;17.974;2022-11-12T22:15:11;11.50;99.90
19385;DHT22;9828;54.122;17.974;2022-11-12T22:21:02;11.50;99.90
19385;DHT22;9828;54.122;17.974;2022-11-12T22:26:42;11.50;99.90
19385;DHT22;9828;54.122;17.974;2022-11-12T22:32:22;11.50;99.90
19385;DHT22;9828;54.122;17.974;2022-11-12T22:38:02;11.50;99.90
19385;DHT22;9828;54.122;17.974;2022-11-12T22:43:49;11.50;99.90
19385;DHT22;9828;54.122;17.974;2022-11-12T22:49:29;11.50;99.90
19385;DHT22;9828;54.122;17.974;2022-11-12T22:55:10;11.50;99.90
19385;DHT22;9828;54.122;17.974;2022-11-12T23:00:50;11.50;99.90
19385;DHT22;9828;54.122;17.974;2022-11-12T23:06:30;11.50;99.90
19385;DHT22;9828;54.122;17.974;2022-11-12T23:12:10;11.50;99.90
19385;DHT22;9828;54.122;17.974;2022-11-12T23:17:50;11.40;99.90
19385;DHT22;9828;54.122;17.974;2022-11-12T23:23:31;11.50;99.90
19385;DHT22;9828;54.122;17.974;2022-11-12T23:29:11;11.50;99.90
19385;DHT22;9828;54.122;17.974;2022-11-12T23:34:52;11.50;99.90
19385;DHT22;9828;54.122;17.974;2022-11-12T23:40:32;11.50;99.90
19385;DHT22;9828;54.122;17.974;2022-11-12T23:46:12;11.50;99.90
19385;DHT22;9828;54.122;17.974;2022-11-12T23:51:52;11.50;99.90
19385;DHT22;9828;54.122;17.974;2022-11-12T23:57:32;11.50;99.90
